Data for 07/12/2007

Time Sea-Level Adjusted Pressure Absolute Pressure Temperature Relative Humidity Dew Point   
(mb) (inHg) (mb) (inHg) (C) (F) (%) (C) (F)
00:05 1022 30.18 851 25.13 20.2 68.3 34 4.1 39.4
00:10 1022 30.18 851 25.13 20.1 68.1 35 4.1 39.4
00:15 1022 30.18 851 25.13 20.1 68.1 35 4.2 39.6
00:20 1022 30.18 851 25.13 20 68 35 4.3 39.7
00:25 1022 30.18 851 25.13 20 68 35 4.3 39.7
00:30 1022 30.18 851 25.13 20 68.1 35 4.2 39.6
00:35 1022 30.18 851 25.13 20 68.1 35 4.3 39.7
00:40 1022 30.18 851 25.13 19.9 67.9 35 4.3 39.7
00:45 1022 30.18 851 25.13 19.9 67.9 35 4.1 39.5
00:50 1022 30.18 851 25.13 20 68 35 4.2 39.5
00:55 1022 30.18 851 25.13 20 67.9 35 4.2 39.5
01:00 1022 30.18 851 25.13 19.9 67.8 35 4.1 39.4
01:05 1022 30.18 851 25.13 19.8 67.7 35 4.1 39.4
01:10 1022 30.18 851 25.13 19.8 67.6 35 4.2 39.6
01:15 1022 30.18 851 25.13 19.7 67.5 36 4.3 39.7
01:20 1022 30.18 851 25.13 19.6 67.2 36 4.4 40
01:25 1022 30.18 851 25.13 19.5 67 37 4.4 40
01:30 1022 30.18 851 25.13 19.4 66.9 37 4.5 40.1
01:35 1022 30.18 851 25.13 19.4 66.9 37 4.4 40
01:40 1022 30.18 851 25.13 19.3 66.8 37 4.5 40.1
01:45 1022 30.18 851 25.13 19.2 66.6 37 4.5 40.1
01:50 1022 30.18 851 25.13 19.2 66.6 38 4.6 40.3
01:55 1022 30.18 851 25.13 19.1 66.3 38 4.6 40.2
02:00 1022 30.18 851 25.13 19 66.2 38 4.6 40.3
02:05 1022 30.18 851 25.13 18.9 66 39 4.7 40.5
02:10 1022 30.18 851 25.13 18.8 65.8 39 4.5 40.1
02:15 1022 30.18 851 25.13 18.9 66 38 4.5 40.1
02:20 1022 30.18 851 25.13 18.8 65.9 39 4.6 40.3
02:25 1022 30.18 851 25.13 18.8 65.8 39 4.6 40.2
02:30 1022 30.18 851 25.13 18.8 65.8 38 4.4 40
02:35 1022 30.18 851 25.13 18.8 65.9 38 4.5 40.1
02:40 1022 30.18 851 25.13 18.8 65.8 39 4.6 40.2
02:45 1022 30.18 851 25.13 18.7 65.7 39 4.6 40.4
02:50 1022 30.18 851 25.13 18.6 65.4 39 4.7 40.4
02:55 1022 30.18 851 25.13 18.4 65.2 40 4.7 40.4
03:00 1022 30.18 851 25.13 18.4 65.2 40 4.6 40.3
03:05 1022 30.18 851 25.13 18.4 65.2 40 4.6 40.3
03:10 1022 30.18 851 25.13 18.3 64.9 40 4.6 40.3
03:15 1022 30.18 851 25.13 18.2 64.7 41 4.7 40.5
03:20 1022 30.18 851 25.13 18.1 64.6 41 4.7 40.4
03:25 1022 30.18 851 25.13 18.1 64.6 41 4.8 40.6
03:30 1022 30.18 851 25.13 18 64.4 41 4.8 40.6
03:35 1022 30.18 851 25.13 17.9 64.3 41 4.8 40.6
03:40 1022 30.18 851 25.13 17.9 64.2 42 4.8 40.6
03:45 1022 30.18 851 25.13 17.9 64.2 42 4.8 40.6
03:50 1022 30.18 851 25.13 17.8 64.1 42 4.8 40.7
03:55 1022 30.18 851 25.13 17.7 63.8 42 4.9 40.8
04:00 1022 30.18 851 25.13 17.7 63.9 42 4.8 40.6
04:05 1022 30.18 851 25.13 17.8 64 42 4.8 40.6
04:10 1022 30.18 851 25.13 17.8 64 42 4.9 40.7
04:15 1022 30.18 851 25.13 17.7 63.8 42 4.8 40.7
04:20 1022 30.18 851 25.13 17.6 63.6 43 4.8 40.7
04:25 1022 30.18 851 25.13 17.5 63.6 43 4.8 40.7
04:30 1022 30.18 851 25.13 17.4 63.3 43 4.9 40.8
04:35 1022 30.18 851 25.13 17.4 63.2 43 4.8 40.6
04:40 1022 30.18 851 25.13 17.4 63.4 43 4.8 40.6
04:45 1022 30.18 851 25.13 17.6 63.6 42 4.7 40.5
04:50 1022 30.18 851 25.13 17.5 63.5 43 4.9 40.8
04:55 1022 30.18 851 25.13 17.4 63.3 43 4.9 40.8
05:00 1022 30.18 851 25.13 17.4 63.4 43 4.8 40.6
05:05 1022 30.18 851 25.13 17.5 63.5 43 4.7 40.5
05:10 1022 30.18 851 25.13 17.5 63.5 43 4.8 40.6
05:15 1022 30.18 851 25.13 17.4 63.4 43 4.9 40.8
05:20 1022 30.18 852 25.16 17.3 63.2 44 5.1 41.1
05:25 1022 30.18 852 25.16 17.1 62.9 44 4.9 40.9
05:30 1022 30.18 852 25.16 17.1 62.8 44 4.9 40.8
05:35 1022 30.18 852 25.16 17.1 62.9 44 5 40.9
05:40 1022 30.18 852 25.16 17.1 62.8 44 4.9 40.9
05:45 1022 30.18 852 25.16 17.1 62.8 44 5 40.9
05:50 1022 30.18 852 25.16 17 62.6 44 4.9 40.8
05:55 1022 30.18 852 25.16 17 62.6 45 5 41.1
06:00 1023 30.21 852 25.16 17 62.6 45 5 41.1
06:05 1023 30.21 852 25.16 17 62.5 44 4.9 40.8
06:10 1023 30.21 852 25.16 17.1 62.8 44 5 41
06:15 1023 30.21 852 25.16 17.1 62.8 44 5 41
06:20 1023 30.21 852 25.16 17.2 62.9 44 5 41.1
06:25 1023 30.21 852 25.16 17.2 62.9 44 5 41
06:30 1023 30.21 852 25.16 17.3 63.1 44 5.1 41.1
06:35 1023 30.21 852 25.16 17.3 63.1 44 5.1 41.2
06:40 1023 30.21 852 25.16 17.4 63.3 44 5.2 41.4
06:45 1023 30.21 852 25.16 17.6 63.6 44 5.2 41.3
06:50 1023 30.21 852 25.16 17.7 63.8 44 5.3 41.5
06:55 1023 30.21 852 25.16 17.7 63.9 44 5.4 41.7
07:00 1023 30.21 852 25.16 17.8 64 44 5.3 41.6
07:05 1023 30.21 852 25.16 17.9 64.2 43 5.2 41.3
07:10 1023 30.21 852 25.16 18 64.5 43 5.2 41.4
07:15 1023 30.21 852 25.16 18.2 64.8 42 5.1 41.1
07:20 1023 30.21 852 25.16 18.4 65.1 41 4.9 40.9
07:25 1023 30.21 852 25.16 18.5 65.3 41 5.2 41.3
07:30 1023 30.21 852 25.16 18.5 65.4 42 5.5 41.8
07:35 1023 30.21 852 25.16 18.7 65.6 41 5.3 41.5
07:40 1023 30.21 852 25.16 18.7 65.6 42 5.5 41.9
07:45 1023 30.21 852 25.16 18.8 65.9 41 5.4 41.7
07:50 1023 30.21 852 25.16 19 66.2 41 5.5 42
07:55 1023 30.21 852 25.16 19.1 66.4 39 5 41
08:00 1023 30.21 852 25.16 19.3 66.7 39 5 41
08:05 1023 30.21 852 25.16 19.4 66.9 38 5 41
08:10 1023 30.21 852 25.16 19.6 67.2 38 5 41
08:15 1023 30.21 852 25.16 19.7 67.4 38 5 41.1
08:20 1023 30.21 852 25.16 19.8 67.7 38 5.1 41.3
08:25 1023 30.21 852 25.16 20.1 68.1 38 5.3 41.6
08:30 1023 30.21 853 25.19 20 68 38 5.5 41.8
08:35 1023 30.21 853 25.19 20 68.1 40 6 42.9
08:40 1023 30.21 853 25.19 20.1 68.1 39 5.9 42.7
08:45 1023 30.21 853 25.19 20.2 68.3 39 5.8 42.4
08:50 1023 30.21 853 25.19 20.3 68.6 38 5.8 42.4
08:55 1023 30.21 853 25.19 20.4 68.7 38 5.9 42.7
09:00 1023 30.21 852 25.16 20.7 69.3 38 5.9 42.6
09:05 1023 30.21 852 25.16 20.9 69.6 37 6 42.7
09:10 1023 30.21 852 25.16 21.1 70 36 5.7 42.2
09:15 1023 30.21 852 25.16 21.2 70.1 38 6.3 43.4
09:20 1023 30.21 852 25.16 21.5 70.6 36 6.1 43
09:25 1023 30.21 852 25.16 21.7 71.1 36 6 42.8
09:30 1023 30.21 852 25.16 21.9 71.3 36 6.4 43.6
09:35 1023 30.21 852 25.16 22 71.5 37 6.8 44.2
09:40 1023 30.21 852 25.16 21.9 71.4 35 6 42.8
09:45 1023 30.21 852 25.16 22.1 71.9 35 6.3 43.4
09:50 1023 30.21 852 25.16 21.8 71.2 37 6.6 43.8
09:55 1023 30.21 852 25.16 22.4 72.4 34 6.2 43.2
10:00 1023 30.21 852 25.16 22.9 73.2 33 6.1 43
10:05 1023 30.21 852 25.16 22.9 73.1 34 6.2 43.2
10:10 1023 30.21 852 25.16 22.8 73 34 6.1 43
10:15 1023 30.21 852 25.16 23.4 74 34 6.8 44.2
10:20 1023 30.21 852 25.16 22.9 73.3 34 6.6 43.8
10:25 1023 30.21 852 25.16 23.9 75 33 6.7 44
10:30 1023 30.21 852 25.16 24.3 75.7 33 7.3 45.2
10:35 1023 30.21 852 25.16 23.1 73.7 34 6.4 43.6
10:40 1023 30.21 852 25.16 23.8 74.9 32 6.5 43.8
10:45 1023 30.21 852 25.16 23.8 74.9 33 7 44.6
10:50 1023 30.21 852 25.16 23.8 74.9 34 7.2 44.9
10:55 1023 30.21 852 25.16 23.5 74.2 34 6.8 44.3
11:00 1023 30.21 852 25.16 23.4 74.2 34 6.8 44.2
11:05 1023 30.21 852 25.16 23.7 74.6 34 7.3 45.1
11:10 1023 30.21 852 25.16 24.4 75.9 32 6.8 44.3
11:15 1023 30.21 852 25.16 25.3 77.6 31 7.3 45.2
11:20 1023 30.21 852 25.16 25.5 77.9 30 7.1 44.8
11:25 1023 30.21 852 25.16 25.7 78.2 31 7.6 45.7
11:30 1023 30.21 852 25.16 25.5 77.8 31 7.4 45.3
11:35 1023 30.21 852 25.16 25.5 77.9 31 7.4 45.4
11:40 1023 30.21 852 25.16 26 78.8 31 7.8 46
11:45 1023 30.21 852 25.16 25.8 78.5 32 8 46.4
11:50 1023 30.21 852 25.16 25.7 78.2 32 7.8 46
11:55 1023 30.21 852 25.16 26.1 79 30 7.5 45.5
12:00 1023 30.21 852 25.16 26.6 79.9 30 8.1 46.6
12:05 1023 30.21 852 25.16 26.9 80.4 29 7.6 45.7
12:10 1023 30.21 852 25.16 27.2 80.9 28 7.3 45.1
12:15 1023 30.21 852 25.16 28 82.3 30 8.9 48.1
12:20 1023 30.21 852 25.16 27.9 82.3 28 7.8 46
12:25 1023 30.21 852 25.16 27.4 81.4 29 8.2 46.7
12:30 1023 30.21 852 25.16 26.6 80 30 8 46.5
12:35 1023 30.21 852 25.16 27.3 81.1 24 5 41.1
12:40 1023 30.21 852 25.16 27.6 81.6 22 4.5 40.2
12:45 1022 30.18 852 25.16 27.6 81.8 23 4.8 40.7
12:50 1022 30.18 852 25.16 27.8 82.1 22 4.2 39.5
12:55 1022 30.18 852 25.16 27.9 82.2 21 4.1 39.4
13:00 1022 30.18 852 25.16 28 82.5 21 4.3 39.7
13:05 1022 30.18 852 25.16 27.7 81.9 22 4.2 39.5
13:10 1022 30.18 851 25.13 27.9 82.1 22 4.4 40
13:15 1022 30.18 851 25.13 28 82.3 22 4.8 40.7
13:20 1022 30.18 851 25.13 28.1 82.6 22 4.7 40.5
13:25 1022 30.18 851 25.13 27.7 81.8 23 5 41
13:30 1022 30.18 851 25.13 27.8 82 22 4.5 40
13:35 1022 30.18 851 25.13 27.9 82.2 23 4.9 40.9
13:40 1022 30.18 851 25.13 27.8 82.1 22 4.7 40.5
13:45 1022 30.18 851 25.13 28.3 82.9 22 5 41
13:50 1022 30.18 851 25.13 28.4 83.1 22 4.9 40.8
13:55 1022 30.18 851 25.13 28.2 82.8 21 4.4 39.9
14:00 1022 30.18 851 25.13 28.3 83 21 4.3 39.7
14:05 1022 30.18 851 25.13 28.2 82.8 22 4.7 40.4
14:10 1022 30.18 851 25.13 28.2 82.7 22 5 41
14:15 1022 30.18 851 25.13 28.4 83.2 22 5.2 41.3
14:20 1022 30.18 851 25.13 28.8 83.8 21 4.6 40.3
14:25 1022 30.18 851 25.13 28.5 83.2 21 4.6 40.3
14:30 1022 30.18 851 25.13 28.6 83.5 21 4.6 40.3
14:35 1022 30.18 851 25.13 29 84.3 20 4.4 40
14:40 1022 30.18 851 25.13 29.3 84.8 20 4.3 39.8
14:45 1022 30.18 851 25.13 29 84.2 20 4.3 39.7
14:50 1021 30.15 851 25.13 29.5 85.1 20 4.4 40
14:55 1021 30.15 851 25.13 29.4 85 21 4.9 40.7
15:00 1021 30.15 851 25.13 29.3 84.7 19 3.6 38.5
15:05 1021 30.15 851 25.13 29.4 85 19 4 39.1
15:10 1021 30.15 851 25.13 29.6 85.2 19 4.1 39.3
15:15 1021 30.15 851 25.13 29.4 84.9 19 3.4 38.1
15:20 1021 30.15 850 25.1 29.7 85.4 18 3.1 37.5
15:25 1021 30.15 850 25.1 29.6 85.2 19 4 39.3
15:30 1021 30.15 850 25.1 30.1 86.2 19 4.1 39.5
15:35 1021 30.15 850 25.1 30.3 86.5 17 3.3 37.9
15:40 1021 30.15 850 25.1 30 85.9 19 4.1 39.3
15:45 1021 30.15 850 25.1 30.1 86.2 18 3.4 38.2
15:50 1021 30.15 850 25.1 30.1 86.1 18 3.8 38.9
15:55 1021 30.15 850 25.1 30.3 86.6 17 2.7 36.8
16:00 1021 30.15 850 25.1 30.1 86.2 18 3.6 38.4
16:05 1021 30.15 850 25.1 29.8 85.6 19 3.7 38.6
16:10 1021 30.15 850 25.1 30.3 86.6 17 3.2 37.8
16:15 1021 30.15 850 25.1 30.4 86.6 16 2.4 36.3
16:20 1021 30.15 850 25.1 30.3 86.6 17 3.3 38
16:25 1021 30.15 850 25.1 30.2 86.3 18 3.5 38.2
16:30 1021 30.15 850 25.1 30.3 86.5 17 3.1 37.5
16:35 1021 30.15 850 25.1 30.2 86.3 17 3 37.4
16:40 1021 30.15 850 25.1 30.3 86.6 17 3.2 37.7
16:45 1020 30.12 850 25.1 30.4 86.7 17 3.4 38
16:50 1020 30.12 850 25.1 30.5 86.9 16 2.6 36.6
16:55 1020 30.12 850 25.1 30.7 87.2 16 2.4 36.3
17:00 1020 30.12 850 25.1 30.4 86.7 16 2 35.6
17:05 1020 30.12 849 25.07 30.5 87 16 2.5 36.5
17:10 1020 30.12 849 25.07 30.7 87.2 17 3.2 37.7
17:15 1020 30.12 849 25.07 30.5 86.8 16 2.4 36.2
17:20 1020 30.12 849 25.07 30.5 86.9 16 2.2 36
17:25 1020 30.12 849 25.07 30.3 86.6 16 1.7 35.1
17:30 1020 30.12 849 25.07 30.4 86.6 15 1.6 34.9
17:35 1020 30.12 849 25.07 30.1 86.2 16 2 35.5
17:40 1020 30.12 849 25.07 30 85.9 15 1.3 34.3
17:45 1020 30.12 849 25.07 29.9 85.8 16 1.6 34.8
17:50 1020 30.12 849 25.07 30.2 86.4 16 1.8 35.2
17:55 1020 30.12 849 25.07 30.3 86.5 16 2.1 35.7
18:00 1020 30.12 849 25.07 30.1 86.2 16 1.8 35.2
18:05 1020 30.12 850 25.1 30 86 15 1.2 34.1
18:10 1020 30.12 849 25.07 29.8 85.6 16 1.9 35.3
18:15 1020 30.12 850 25.1 29.8 85.6 16 1.7 35
18:20 1020 30.12 850 25.1 29.7 85.5 16 1.5 34.6
18:25 1020 30.12 850 25.1 29.7 85.4 16 1.3 34.3
18:30 1020 30.12 850 25.1 29.5 85.1 16 1 33.8
18:35 1021 30.15 850 25.1 29.4 84.8 16 0.9 33.7
18:40 1021 30.15 850 25.1 29.3 84.8 16 1.1 33.9
18:45 1021 30.15 850 25.1 29.1 84.3 16 1 33.8
18:50 1021 30.15 850 25.1 29 84.3 16 1.1 34
18:55 1021 30.15 850 25.1 29 84.1 16 0.8 33.5
19:00 1021 30.15 850 25.1 29 84.1 17 2 35.6
19:05 1020 30.12 850 25.1 28.8 83.9 18 2.5 36.5
19:10 1021 30.15 850 25.1 28.7 83.6 19 3.2 37.8
19:15 1020 30.12 850 25.1 28.4 83 19 3 37.4
19:20 1021 30.15 850 25.1 28.1 82.6 19 3 37.3
19:25 1021 30.15 850 25.1 27.9 82.1 20 3.2 37.7
19:30 1021 30.15 850 25.1 27.7 81.8 21 3.5 38.2
19:35 1021 30.15 850 25.1 27.5 81.5 21 3.7 38.6
19:40 1021 30.15 850 25.1 27.3 81.2 22 4.2 39.6
19:45 1021 30.15 850 25.1 27.2 80.9 23 4.6 40.2
19:50 1021 30.15 850 25.1 27.1 80.7 22 4.1 39.4
19:55 1021 30.15 850 25.1 27 80.6 23 4.2 39.5
20:00 1021 30.15 850 25.1 26.9 80.4 23 4.2 39.5
20:05 1021 30.15 850 25.1 26.8 80.3 23 4 39.1
20:10 1021 30.15 850 25.1 26.6 79.9 23 4.3 39.7
20:15 1021 30.15 850 25.1 26.4 79.6 23 4.2 39.6
20:20 1021 30.15 850 25.1 26.3 79.3 24 4.5 40.1
20:25 1021 30.15 850 25.1 26 78.9 24 4.2 39.5
20:30 1021 30.15 850 25.1 26 78.7 24 4.2 39.6
20:35 1021 30.15 850 25.1 25.7 78.3 25 4.3 39.8
20:40 1021 30.15 850 25.1 25.5 78 25 4.4 39.9
20:45 1021 30.15 850 25.1 25.3 77.5 25 4.3 39.7
20:50 1021 30.15 850 25.1 25.2 77.3 25 4.3 39.7
20:55 1021 30.15 850 25.1 25 77.1 26 4.2 39.5
21:00 1021 30.15 850 25.1 25.1 77.1 25 4.1 39.4
21:05 1021 30.15 850 25.1 25 77 25 3.9 39.1
21:10 1021 30.15 851 25.13 24.9 76.9 25 4 39.2
21:15 1021 30.15 851 25.13 24.8 76.7 25 3.8 38.8
21:20 1021 30.15 851 25.13 24.8 76.7 25 3.7 38.6
21:25 1021 30.15 851 25.13 24.8 76.7 25 3.8 38.8
21:30 1021 30.15 851 25.13 24.7 76.4 25 3.8 38.8
21:35 1022 30.18 851 25.13 24.7 76.5 25 3.9 38.9
21:40 1022 30.18 851 25.13 24.6 76.3 26 3.9 39.1
21:45 1022 30.18 851 25.13 24.5 76.1 26 3.9 39.1
21:50 1022 30.18 851 25.13 24.5 76.1 26 3.9 39
21:55 1022 30.18 851 25.13 24.5 76.1 26 4 39.1
22:00 1022 30.18 851 25.13 24.4 75.9 27 4.3 39.7
22:05 1022 30.18 852 25.16 24.1 75.5 28 4.6 40.3
22:10 1022 30.18 852 25.16 23.9 75 28 4.4 39.9
22:15 1023 30.21 852 25.16 23.8 74.9 28 4.6 40.2
22:20 1023 30.21 852 25.16 24 75.2 29 5.2 41.4
22:25 1023 30.21 852 25.16 23.7 74.7 29 4.8 40.7
22:30 1023 30.21 852 25.16 23.8 74.8 28 4.6 40.2
22:35 1023 30.21 852 25.16 24 75.2 28 4.5 40
22:40 1023 30.21 852 25.16 24.1 75.4 28 4.6 40.3
22:45 1023 30.21 852 25.16 24 75.2 28 4.4 39.8
22:50 1023 30.21 852 25.16 24.2 75.6 27 4 39.3
22:55 1023 30.21 852 25.16 24.5 76 25 3.5 38.3
23:00 1023 30.21 852 25.16 24.6 76.2 26 4.2 39.5
23:05 1023 30.21 852 25.16 24.5 76.1 26 3.7 38.7
23:10 1023 30.21 852 25.16 24.6 76.2 26 4.2 39.6
23:15 1023 30.21 852 25.16 24.3 75.7 29 5.3 41.6
23:20 1023 30.21 852 25.16 24.1 75.3 27 4.1 39.3
23:25 1023 30.21 852 25.16 24.2 75.6 26 3.9 38.9
23:30 1023 30.21 852 25.16 24.3 75.7 28 4.8 40.7
23:35 1023 30.21 852 25.16 24 75.3 28 4.4 40
23:40 1023 30.21 852 25.16 23.9 75 26 3.6 38.5
23:45 1023 30.21 852 25.16 24.1 75.4 27 4.1 39.3
23:50 1023 30.21 852 25.16 23.9 75 27 4 39.2
23:55 1023 30.21 852 25.16 23.8 74.8 28 4.3 39.7
24:00 1023 30.21 852 25.16 23.2 73.8 30 4.8 40.6